Latest Coastal Weather Observations for Orbost

IDV60701

Issued at 2:35 pm EDT Sunday 26 October 2014 (issued every 10 minutes, with the page automatically refreshed every 10 minutes)

About coastal observations | Map of coastal stations | Coastal observations for VIC | Marine services | Other Formats
Station Details ID: 084145 Name: ORBOST Lat: -37.69 Lon: 148.47 Height: 62.65 m
Data from the previous 72 hours. | See also: Recent months at Orbost
Date/Time
EDT
Temp

°C
Wind Pressure Rain
since 9am
mm
Weather Cloud Vis
km
Sea
Height
m
Swell
Dir
 
Speed
knots
Gust
knots
hPa Trend Height
m
Period
s
Dir
26/02:30pm 16.9 SSE 3 4 1012.4 - 0.0 - - - - - - -
26/02:00pm 17.0 SSW 4 6 1012.9 - 0.0 - - - - - - -
26/01:30pm 16.2 SSW 4 6 1013.2 - 0.0 - - - - - - -
26/01:00pm 15.7 SSW 5 7 1013.2 - 0.0 - - - - - - -
26/12:30pm 15.6 SSW 5 7 1013.4 - 0.0 - - - - - - -
26/12:00pm 16.1 SE 2 3 1013.2 - 0.0 - - - - - - -
26/11:30am 16.1 W 2 4 1013.1 - 0.0 - - - - - - -
26/11:00am 15.6 W 3 5 1013.6 - 0.0 - - - - - - -
26/10:30am 15.0 W 2 4 1013.7 - 0.0 - - - - - - -
26/10:00am 14.6 WNW 2 4 1013.8 - 0.0 - - - - - - -
26/09:30am 14.0 W 2 3 1013.3 - 0.0 - - - - - - -
26/09:00am 14.1 W 3 3 1013.2 - 0.4 - - - - - - -
26/08:30am 13.7 W 2 3 1013.2 - 0.4 - - - - - - -
26/08:00am 13.7 W 2 3 1013.1 - 0.4 - - - - - - -
26/07:30am 13.5 W 3 4 1013.0 - 0.4 - - - - - - -
26/07:00am 13.4 W 2 2 1012.6 - 0.4 - - - - - - -
26/06:30am 13.4 CALM 0 0 1012.4 - 0.4 - - - - - - -
26/06:00am 13.4 CALM 0 0 1012.3 - 0.4 Recent precip. - - - - - -
26/05:30am 13.4 CALM 0 0 1012.5 - 0.4 - - - - - - -
26/05:00am 13.3 W 2 3 1012.4 - 0.2 - - - - - - -
26/04:30am 13.4 CALM 0 0 1012.4 - 0.0 - - - - - - -
26/04:00am 13.3 CALM 0 2 1012.5 - 0.0 - - - - - - -
26/03:30am 13.5 CALM 0 0 1012.6 - 0.0 - - - - - - -
26/03:00am 13.5 NW 1 1 1012.9 - 0.0 - - - - - - -
26/02:30am 13.6 CALM 0 0 1013.3 - 0.0 - - - - - - -
26/02:00am 13.6 WSW 1 2 1013.8 - 0.0 - - - - - - -
26/01:30am 13.6 WSW 1 2 1014.3 - 0.0 - - - - - - -
26/01:00am 13.9 CALM 0 0 1015.0 - 0.0 - - - - - - -
26/12:30am 13.8 CALM 0 0 1015.5 - 0.0 - - - - - - -
26/12:00am 13.8 NNE 0 0 1015.8 - 0.0 - - - - - - -
 
Date/Time
EDT
Temp

°C
Wind Pressure Rain
since 9am
mm
Weather Cloud Vis
km
Sea
Height
m
Swell
Dir
 
Speed
knots
Gust
knots
hPa Trend Height
m
Period
s
Dir
25/11:30pm 13.8 CALM 0 0 1016.1 - 0.0 - - - - - - -
25/11:00pm 13.8 CALM 0 2 1016.2 - 0.0 - - - - - - -
25/10:30pm 13.9 ENE 1 2 1016.5 - 0.0 - - - - - - -
25/10:00pm 14.1 E 2 3 1016.6 - 0.0 - - - - - - -
25/09:30pm 14.1 E 1 3 1016.7 - 0.0 - - - - - - -
25/09:00pm 14.1 E 3 6 1016.5 - 0.0 - - - - - - -
25/08:30pm 14.3 ESE 2 4 1016.3 - 0.0 - - - - - - -
25/08:00pm 14.2 E 2 3 1016.2 - 0.0 - - - - - - -
25/07:30pm 14.4 ESE 2 4 1016.2 - 0.0 - - - - - - -
25/07:00pm 14.5 ESE 2 4 1016.0 - 0.0 - - - - - - -
25/06:30pm 14.7 SSE 2 4 1015.8 - 0.0 - - - - - - -
25/06:00pm 14.7 SE 2 4 1015.7 - 0.0 - - - - - - -
25/05:30pm 14.8 S 4 6 1015.7 - 0.0 - - - - - - -
25/05:00pm 14.9 SSE 3 6 1015.4 - 0.0 - - - - - - -
25/04:30pm 14.9 S 5 7 1015.2 - 0.0 - - - - - - -
25/04:00pm 15.2 SSE 4 7 1015.3 - 0.0 - - - - - - -
25/03:30pm 15.6 S 5 9 1015.4 - 0.0 - - - - - - -
25/03:00pm 16.1 S 4 7 1015.3 - 0.0 - - - - - - -
25/02:30pm 15.9 SSE 4 6 1015.6 - 0.0 - - - - - - -
25/02:00pm 15.8 S 3 6 1016.2 - 0.0 - - - - - - -
25/01:30pm 15.8 SSE 3 5 1016.2 - 0.0 - - - - - - -
25/01:00pm 15.1 S 3 5 1016.6 - 0.0 - - - - - - -
25/12:30pm 15.1 S 5 7 1016.9 - 0.0 - - - - - - -
25/12:00pm 14.9 S 4 5 1017.4 - 0.0 - - - - - - -
25/11:30am 14.9 S 3 5 1017.6 - 0.0 - - - - - - -
25/11:00am 14.5 S 3 5 1017.8 - 0.0 - - - - - - -
25/10:30am 14.4 S 2 3 1017.8 - 0.0 - - - - - - -
25/10:00am 14.1 S 2 4 1017.9 - 0.0 - - - - - - -
25/09:30am 13.8 SSW 3 5 1017.7 - 0.0 - - - - - - -
25/09:00am 13.9 SSW 4 5 1017.8 - 0.8 - - - - - - -
25/08:30am 13.8 WSW 3 4 1017.8 - 0.8 - - - - - - -
25/08:00am 13.9 W 1 3 1017.7 - 0.8 - - - - - - -
25/07:30am 13.9 W 2 3 1017.6 - 0.4 - - - - - - -
25/07:00am 13.9 SSW 4 5 1017.2 - 0.4 - - - - - - -
25/06:30am 14.1 CALM 0 0 1017.0 - 0.2 - - - - - - -
25/06:00am 14.1 S 2 5 1016.5 - 0.0 - - - - - - -
25/05:30am 14.3 SSW 6 9 1016.2 - 0.0 - - - - - - -
25/05:00am 14.7 SSW 7 10 1015.9 - 0.0 - - - - - - -
25/04:30am 15.2 S 2 4 1015.4 - 0.0 - - - - - - -
25/04:00am 14.6 SSE 2 3 1015.2 - 0.0 - - - - - - -
25/03:30am 14.5 ENE 1 2 1014.8 - 0.0 - - - - - - -
25/03:00am 14.8 CALM 0 0 1014.9 - 0.0 - - - - - - -
25/02:30am 14.8 N 2 2 1014.5 - 0.0 - - - - - - -
25/02:00am 15.3 W 2 3 1014.5 - 0.0 - - - - - - -
25/01:30am 16.2 SW 4 7 1014.8 - 0.0 - - - - - - -
25/01:00am 16.5 SW 3 5 1014.6 - 0.0 - - - - - - -
25/12:30am 16.5 NNW 2 2 1014.4 - 0.0 - - - - - - -
25/12:00am 16.6 N 1 3 1014.2 - 0.0 - - - - - - -
 
Date/Time
EDT
Temp

°C
Wind Pressure Rain
since 9am
mm
Weather Cloud Vis
km
Sea
Height
m
Swell
Dir
 
Speed
knots
Gust
knots
hPa Trend Height
m
Period
s
Dir
24/11:30pm 17.9 CALM 0 0 1013.8 - 0.0 - - - - - - -
24/11:00pm 17.8 SSW 3 5 1013.2 - 0.0 - - - - - - -
24/10:30pm 18.4 SSW 1 3 1012.6 - 0.0 - - - - - - -
24/10:00pm 18.6 N 2 3 1012.2 - 0.0 - - - - - - -
24/09:30pm 19.5 N 3 4 1011.9 - 0.0 - - - - - - -
24/09:00pm 19.9 N 2 2 1011.7 - 0.0 - - - - - - -
24/08:30pm 19.8 N 2 3 1011.5 - 0.0 - - - - - - -
24/08:00pm 21.9 CALM 0 0 1011.1 - 0.0 - - - - - - -
24/07:30pm 22.7 CALM 0 1 1010.6 - 0.0 - - - - - - -
24/07:00pm 25.0 SSW 2 3 1010.7 - 0.0 - - - - - - -
24/06:30pm 24.8 SSW 4 6 1010.4 - 0.0 - - - - - - -
24/06:00pm 25.5 SW 5 7 1010.2 - 0.0 - - - - - - -
24/05:30pm 26.3 SW 2 5 1009.7 - 0.0 - - - - - - -
24/05:00pm 26.3 SW 4 6 1009.5 - 0.0 - - - - - - -
24/04:30pm 26.5 S 2 4 1009.1 - 0.0 - - - - - - -
24/04:00pm 26.6 SSE 3 5 1008.8 - 0.0 - - - - - - -
24/03:30pm 27.9 SE 4 7 1008.9 - 0.0 - - - - - - -
24/03:00pm 28.4 SSE 6 9 1008.8 - 0.0 - - - - - - -
24/02:30pm 28.3 ESE 5 7 1009.1 - 0.0 - - - - - - -
24/02:00pm 28.4 SSE 4 6 1009.3 - 0.0 - - - - - - -
24/01:30pm 27.5 SE 3 5 1009.6 - 0.0 - - - - - - -
24/01:00pm 26.5 SSE 4 6 1010.0 - 0.0 - - - - - - -
24/12:30pm 26.1 S 4 8 1010.3 - 0.0 - - - - - - -
24/12:00pm 25.8 SE 3 7 1010.7 - 0.0 - - - - - - -
24/11:30am 24.6 SSE 4 6 1011.2 - 0.0 - - - - - - -
24/11:00am 24.3 SSE 2 4 1011.8 - 0.0 - - - - - - -
24/10:30am 22.3 SSE 2 4 1012.2 - 0.0 - - - - - - -
24/10:00am 19.8 SE 2 4 1012.8 - 0.0 - - - - - - -
24/09:30am 17.9 S 2 3 1013.1 - 0.0 - - - - - - -
24/09:00am 16.7 SSW 2 3 1013.7 - 1.0 Recent precip. - - - - - -
24/08:30am 15.8 CALM 0 0 1014.0 - 0.8 - - - - - - -
24/08:00am 14.9 CALM 0 1 1014.3 - 0.8 - - - - - - -
24/07:30am 13.8 NNW 1 2 1014.6 - 0.8 - - - - - - -
24/07:00am 13.8 NNE 1 2 1014.5 - 0.8 - - - - - - -
24/06:30am 14.1 CALM 0 0 1014.6 - 0.8 - - - - - - -
24/06:00am 14.3 CALM 0 0 1014.7 - 0.8 - - - - - - -
24/05:30am 14.4 NNW 2 3 1014.6 - 0.8 - - - - - - -
24/05:00am 14.2 N 2 3 1014.9 - 0.8 - - - - - - -
24/04:30am 14.6 WNW 2 5 1015.2 - 0.8 - - - - - - -
24/04:00am 14.7 WNW 2 3 1015.4 - 0.0 - - - - - - -
24/03:30am 14.6 CALM 0 0 1015.8 - 0.0 - - - - - - -
24/03:00am 14.7 CALM 0 0 1016.4 - 0.0 - - - - - - -
24/02:30am 14.9 CALM 0 0 1017.0 - 0.0 - - - - - - -
24/02:00am 15.2 CALM 0 2 1017.3 - 0.0 - - - - - - -
24/01:30am 15.5 CALM 0 0 1017.9 - 0.0 - - - - - - -
24/01:00am 15.4 ESE 1 2 1018.2 - 0.0 - - - - - - -
24/12:30am 16.0 SE 2 3 1018.8 - 0.0 - - - - - - -
24/12:00am 16.0 SE 1 2 1019.1 - 0.0 - - - - - - -
 
Date/Time
EDT
Temp

°C
Wind Pressure Rain
since 9am
mm
Weather Cloud Vis
km
Sea
Height
m
Swell
Dir
 
Speed
knots
Gust
knots
hPa Trend Height
m
Period
s
Dir
23/11:30pm 16.1 SSE 2 3 1019.3 - 0.0 - - - - - - -
23/11:00pm 16.0 E 1 2 1019.4 - 0.0 - - - - - - -
23/10:30pm 16.0 CALM 0 0 1019.7 - 0.0 - - - - - - -
23/10:00pm 15.9 E 1 3 1019.9 - 0.0 - - - - - - -
23/09:30pm 15.9 ESE 2 4 1019.9 - 0.0 - - - - - - -
23/09:00pm 15.9 ESE 2 4 1019.9 - 0.0 - - - - - - -
23/08:30pm 15.8 SE 2 4 1020.0 - 0.0 - - - - - - -
23/08:00pm 15.9 SE 2 5 1020.0 - 0.0 - - - - - - -
23/07:30pm 15.9 SE 2 4 1019.9 - 0.0 - - - - - - -
23/07:00pm 16.0 SE 2 4 1020.2 - 0.0 - - - - - - -
23/06:30pm 16.1 ESE 3 5 1019.6 - 0.0 - - - - - - -
23/06:00pm 16.2 SE 3 7 1019.8 - 0.0 - - - - - - -
23/05:30pm 16.4 ESE 4 9 1019.6 - 0.0 - - - - - - -
23/05:00pm 16.3 ESE 4 7 1019.4 - 0.0 - - - - - - -
23/04:30pm 16.7 SE 5 10 1019.6 - 0.0 - - - - - - -
23/04:00pm 16.9 SE 5 10 1019.5 - 0.0 - - - - - - -
23/03:30pm 17.2 SSE 5 10 1019.6 - 0.0 - - - - - - -
23/03:00pm 17.4 SSE 5 11 1019.6 - 0.0 - - - - - - -

Other Formats:

Comma delimited format used in spreadsheet applications
http://www.bom.gov.au/fwo/IDV60701/IDV60701.95918.axf

JavaScript Object Notation format (JSON) in row-major order
http://www.bom.gov.au/fwo/IDV60701/IDV60701.95918.json